Airfield :
LOGIN :

Register | Disclaimer

   EN    FR    IT 

 










Legend :    VFR   Marginal VFR   IFR   Intensive IFR   Very Intensive IFR
Visi :
Ceiling :
>= 8 km
>= 3000ft
5 to 8 km
1000 to 3000 ft
1500m to 5 km
500 to 1000 ft
800 to 1500m
200 to 500 ft
< 800m
< 200 ft
Symbols :   Thunderstorms  Fog  Heavy snow  Heavy precipitations  Wind > 20 kt
SIGMETs :     Misc.  Thunderstorms  Icing  Turbulence  Mountain Waves  Volcanic Ashes






- Airport Elevation : 194 ft


EBCV - Chièvres

CURRENT METAR :
  • 271925Z AUTO 05003KT //// OVC095/// 06/06 Q1017 BLU

EXPIRED METARs :
  • 271855Z AUTO 06003KT //// OVC095/// 06/06 Q1017 BLU
  • 271825Z AUTO 03003KT //// OVC097/// 07/06 Q1017 BLU
  • 271755Z AUTO 05004KT //// OVC097/// 07/06 Q1017 BLU
  • 271725Z AUTO 05004KT //// OVC098/// 06/06 Q1017 BLU
  • 271655Z AUTO 06003KT //// BKN099/// 07/06 Q1017 BLU

TAF TAF EBCV
Valid from the 27 at 19:00 until the 28 at 07:00 UTC


271541Z 2719/2807 08004KT 4000 BR SCT010
TEMPO 2719/2807 2000 BR BKN005
PROB40
TEMPO 1719/2807 0500 FG BKN002 BY EBWM



MET'MAP, your aeronautical weather chart ! - Copyright ORBIFLY December 2007 - Disclaimer

ORBIFLY MET'MAP TEAM :

Programming & Development : Alexandra Zaïnal
Concept & original design : Baudouin d'Aumeries
Assistance for programming : Marc-Olivier Méhu
Technical & hardware support : Manuel Goepfert

Contact : metmap@orbifly.com




SOURCES & CREDITS :

   NOAA